sensor_id;sensor_type;location;lat;lon;timestamp;pressure;altitude;pressure_sealevel;temperature;humidity
68525;BME280;55524;51.380;13.372;2023-02-11T00:00:39;102227.81;;;0.67;97.70
68525;BME280;55524;51.380;13.372;2023-02-11T00:03:06;102238.16;;;0.65;97.77
68525;BME280;55524;51.380;13.372;2023-02-11T00:05:33;102228.75;;;0.69;97.78
68525;BME280;55524;51.380;13.372;2023-02-11T00:07:59;102233.22;;;0.73;97.01
68525;BME280;55524;51.380;13.372;2023-02-11T00:10:25;102225.31;;;0.70;97.89
68525;BME280;55524;51.380;13.372;2023-02-11T00:12:51;102223.09;;;0.82;97.56
68525;BME280;55524;51.380;13.372;2023-02-11T00:15:18;102220.56;;;0.84;96.89
68525;BME280;55524;51.380;13.372;2023-02-11T00:17:46;102209.44;;;0.89;97.18
68525;BME280;55524;51.380;13.372;2023-02-11T00:20:12;102192.19;;;0.93;96.79
68525;BME280;55524;51.380;13.372;2023-02-11T00:22:38;102189.59;;;0.93;96.64
68525;BME280;55524;51.380;13.372;2023-02-11T00:25:05;102176.50;;;0.90;97.65
68525;BME280;55524;51.380;13.372;2023-02-11T00:27:31;102181.69;;;0.90;96.87
68525;BME280;55524;51.380;13.372;2023-02-11T00:29:57;102174.91;;;0.95;97.31
68525;BME280;55524;51.380;13.372;2023-02-11T00:32:25;102163.72;;;0.97;97.03
68525;BME280;55524;51.380;13.372;2023-02-11T00:34:52;102152.63;;;1.03;96.69
68525;BME280;55524;51.380;13.372;2023-02-11T00:37:20;102159.38;;;0.98;97.12
68525;BME280;55524;51.380;13.372;2023-02-11T00:39:46;102149.09;;;1.03;96.97
68525;BME280;55524;51.380;13.372;2023-02-11T00:42:14;102154.16;;;0.98;97.21
68525;BME280;55524;51.380;13.372;2023-02-11T00:44:41;102144.19;;;1.12;96.57
68525;BME280;55524;51.380;13.372;2023-02-11T00:47:07;102155.38;;;1.09;96.62
68525;BME280;55524;51.380;13.372;2023-02-11T00:49:33;102155.59;;;1.17;96.32
68525;BME280;55524;51.380;13.372;2023-02-11T00:51:59;102151.28;;;1.17;96.20
68525;BME280;55524;51.380;13.372;2023-02-11T00:54:26;102155.50;;;1.14;96.41
68525;BME280;55524;51.380;13.372;2023-02-11T00:56:52;102157.22;;;1.13;96.19
68525;BME280;55524;51.380;13.372;2023-02-11T00:59:18;102167.59;;;1.12;96.77
68525;BME280;55524;51.380;13.372;2023-02-11T01:01:44;102165.81;;;1.11;96.73
68525;BME280;55524;51.380;13.372;2023-02-11T01:04:11;102157.56;;;1.26;96.33
68525;BME280;55524;51.380;13.372;2023-02-11T01:06:37;102161.78;;;1.20;96.80
68525;BME280;55524;51.380;13.372;2023-02-11T01:09:03;102156.66;;;1.23;96.74
68525;BME280;55524;51.380;13.372;2023-02-11T01:11:29;102138.72;;;1.34;96.21
68525;BME280;55524;51.380;13.372;2023-02-11T01:13:56;102135.44;;;1.40;95.78
68525;BME280;55524;51.380;13.372;2023-02-11T01:16:22;102143.25;;;1.40;95.74
68525;BME280;55524;51.380;13.372;2023-02-11T01:18:48;102141.72;;;1.48;95.53
68525;BME280;55524;51.380;13.372;2023-02-11T01:21:14;102146.38;;;1.60;94.99
68525;BME280;55524;51.380;13.372;2023-02-11T01:23:41;102137.69;;;1.59;95.01
68525;BME280;55524;51.380;13.372;2023-02-11T01:26:07;102126.50;;;1.63;94.57
68525;BME280;55524;51.380;13.372;2023-02-11T01:28:34;102125.63;;;1.63;95.13
68525;BME280;55524;51.380;13.372;2023-02-11T01:31:01;102129.34;;;1.72;94.40
68525;BME280;55524;51.380;13.372;2023-02-11T01:33:28;102131.06;;;1.72;95.00
68525;BME280;55524;51.380;13.372;2023-02-11T01:35:54;102126.72;;;1.71;94.71
68525;BME280;55524;51.380;13.372;2023-02-11T01:38:25;102117.38;;;1.79;94.56
68525;BME280;55524;51.380;13.372;2023-02-11T01:40:54;102110.53;;;1.84;94.03
68525;BME280;55524;51.380;13.372;2023-02-11T01:43:22;102102.56;;;1.78;94.09
68525;BME280;55524;51.380;13.372;2023-02-11T01:45:54;102113.22;;;1.87;94.02
68525;BME280;55524;51.380;13.372;2023-02-11T01:48:28;102123.69;;;1.89;93.93
68525;BME280;55524;51.380;13.372;2023-02-11T01:51:08;102115.00;;;1.90;93.89
68525;BME280;55524;51.380;13.372;2023-02-11T01:53:36;102120.41;;;1.97;93.31
68525;BME280;55524;51.380;13.372;2023-02-11T01:56:22;102122.06;;;1.94;93.59
68525;BME280;55524;51.380;13.372;2023-02-11T01:59:20;102115.25;;;1.99;93.24
68525;BME280;55524;51.380;13.372;2023-02-11T02:01:52;102115.34;;;2.02;92.75
68525;BME280;55524;51.380;13.372;2023-02-11T02:04:23;102109.41;;;2.09;92.13
68525;BME280;55524;51.380;13.372;2023-02-11T02:07:02;102099.03;;;2.11;92.39
68525;BME280;55524;51.380;13.372;2023-02-11T02:09:36;102099.13;;;2.14;92.10
68525;BME280;55524;51.380;13.372;2023-02-11T02:12:05;102083.50;;;2.15;92.34
68525;BME280;55524;51.380;13.372;2023-02-11T02:14:31;102092.09;;;2.11;92.01
68525;BME280;55524;51.380;13.372;2023-02-11T02:16:58;102096.44;;;2.11;92.28
68525;BME280;55524;51.380;13.372;2023-02-11T02:30:50;102070.09;;;2.00;93.16
68525;BME280;55524;51.380;13.372;2023-02-11T02:33:30;102079.66;;;2.01;93.26
68525;BME280;55524;51.380;13.372;2023-02-11T02:39:10;102078.91;;;2.05;93.38
68525;BME280;55524;51.380;13.372;2023-02-11T02:41:39;102075.53;;;2.09;93.37
68525;BME280;55524;51.380;13.372;2023-02-11T02:44:07;102083.75;;;2.26;92.83
68525;BME280;55524;51.380;13.372;2023-02-11T02:46:34;102091.63;;;2.29;92.53
68525;BME280;55524;51.380;13.372;2023-02-11T02:49:01;102095.47;;;2.45;91.23
68525;BME280;55524;51.380;13.372;2023-02-11T02:56:55;102082.69;;;2.57;90.05
68525;BME280;55524;51.380;13.372;2023-02-11T03:10:12;102033.88;;;2.52;92.12
68525;BME280;55524;51.380;13.372;2023-02-11T03:12:42;102040.75;;;2.48;92.83
68525;BME280;55524;51.380;13.372;2023-02-11T03:15:10;102036.59;;;2.56;91.56
68525;BME280;55524;51.380;13.372;2023-02-11T03:17:40;102032.28;;;2.58;91.55
68525;BME280;55524;51.380;13.372;2023-02-11T03:20:17;102027.88;;;2.54;92.00
68525;BME280;55524;51.380;13.372;2023-02-11T03:25:36;102031.44;;;2.59;90.69
68525;BME280;55524;51.380;13.372;2023-02-11T03:28:37;102017.47;;;2.57;91.99
68525;BME280;55524;51.380;13.372;2023-02-11T03:37:21;102021.09;;;2.64;90.76
68525;BME280;55524;51.380;13.372;2023-02-11T03:39:59;102021.06;;;2.62;90.84
68525;BME280;55524;51.380;13.372;2023-02-11T03:42:34;102016.66;;;2.58;91.47
68525;BME280;55524;51.380;13.372;2023-02-11T03:45:07;102022.75;;;2.60;91.66
68525;BME280;55524;51.380;13.372;2023-02-11T03:47:37;102022.81;;;2.63;91.57
68525;BME280;55524;51.380;13.372;2023-02-11T03:50:08;102017.53;;;2.60;91.73
68525;BME280;55524;51.380;13.372;2023-02-11T03:52:36;102017.75;;;2.69;91.15
68525;BME280;55524;51.380;13.372;2023-02-11T03:55:08;102018.66;;;2.73;90.80
68525;BME280;55524;51.380;13.372;2023-02-11T03:57:36;102026.31;;;2.64;91.88
68525;BME280;55524;51.380;13.372;2023-02-11T04:00:04;102018.41;;;2.61;92.39
68525;BME280;55524;51.380;13.372;2023-02-11T04:02:33;102025.56;;;2.69;91.95
68525;BME280;55524;51.380;13.372;2023-02-11T04:05:00;102021.31;;;2.75;91.47
68525;BME280;55524;51.380;13.372;2023-02-11T04:07:27;102018.63;;;2.71;91.84
68525;BME280;55524;51.380;13.372;2023-02-11T04:09:54;102020.31;;;2.68;92.45
68525;BME280;55524;51.380;13.372;2023-02-11T04:12:20;102019.44;;;2.67;92.44
68525;BME280;55524;51.380;13.372;2023-02-11T04:14:46;102017.84;;;2.74;92.45
68525;BME280;55524;51.380;13.372;2023-02-11T04:17:13;102021.28;;;2.73;92.39
68525;BME280;55524;51.380;13.372;2023-02-11T04:19:39;102027.41;;;2.75;92.28
68525;BME280;55524;51.380;13.372;2023-02-11T04:22:06;102024.97;;;2.84;92.67
68525;BME280;55524;51.380;13.372;2023-02-11T04:24:32;102027.50;;;2.80;92.62
68525;BME280;55524;51.380;13.372;2023-02-11T04:26:59;102030.19;;;2.83;92.76
68525;BME280;55524;51.380;13.372;2023-02-11T04:29:25;102028.53;;;2.88;92.45
68525;BME280;55524;51.380;13.372;2023-02-11T04:31:53;102036.44;;;2.91;91.88
68525;BME280;55524;51.380;13.372;2023-02-11T04:34:20;102034.78;;;2.94;92.61
68525;BME280;55524;51.380;13.372;2023-02-11T04:36:47;102031.13;;;2.86;92.49
68525;BME280;55524;51.380;13.372;2023-02-11T04:39:13;102032.13;;;2.93;92.33
68525;BME280;55524;51.380;13.372;2023-02-11T04:41:39;102031.13;;;2.86;92.89
68525;BME280;55524;51.380;13.372;2023-02-11T04:44:06;102029.56;;;2.96;92.54
68525;BME280;55524;51.380;13.372;2023-02-11T04:46:32;102022.59;;;2.96;92.53
68525;BME280;55524;51.380;13.372;2023-02-11T04:48:58;102031.22;;;2.91;92.56
68525;BME280;55524;51.380;13.372;2023-02-11T04:51:25;102028.69;;;2.94;93.33
68525;BME280;55524;51.380;13.372;2023-02-11T04:53:51;102028.53;;;2.88;93.63
68525;BME280;55524;51.380;13.372;2023-02-11T04:56:17;102041.66;;;2.91;94.00
68525;BME280;55524;51.380;13.372;2023-02-11T04:58:43;102023.56;;;3.00;94.66
68525;BME280;55524;51.380;13.372;2023-02-11T05:01:12;102026.94;;;2.94;95.94
68525;BME280;55524;51.380;13.372;2023-02-11T05:03:41;102024.44;;;3.01;96.17
68525;BME280;55524;51.380;13.372;2023-02-11T05:06:07;102028.94;;;3.08;96.64
68525;BME280;55524;51.380;13.372;2023-02-11T05:08:34;102021.06;;;3.06;97.36
68525;BME280;55524;51.380;13.372;2023-02-11T05:11:00;102018.47;;;3.06;97.78
68525;BME280;55524;51.380;13.372;2023-02-11T05:13:30;102020.19;;;3.06;98.49
68525;BME280;55524;51.380;13.372;2023-02-11T05:15:56;102020.13;;;3.01;98.75
68525;BME280;55524;51.380;13.372;2023-02-11T05:18:23;102019.31;;;3.05;99.21
68525;BME280;55524;51.380;13.372;2023-02-11T05:20:50;102021.66;;;2.93;99.87
68525;BME280;55524;51.380;13.372;2023-02-11T05:23:16;102010.47;;;2.97;99.54
68525;BME280;55524;51.380;13.372;2023-02-11T05:25:42;102007.88;;;2.99;99.71
68525;BME280;55524;51.380;13.372;2023-02-11T05:28:08;102000.78;;;2.93;100.00
68525;BME280;55524;51.380;13.372;2023-02-11T05:30:35;102008.72;;;2.98;100.00
68525;BME280;55524;51.380;13.372;2023-02-11T05:33:01;101995.56;;;2.93;100.00
68525;BME280;55524;51.380;13.372;2023-02-11T05:35:27;102005.19;;;2.94;100.00
68525;BME280;55524;51.380;13.372;2023-02-11T05:37:53;102001.63;;;2.90;100.00
68525;BME280;55524;51.380;13.372;2023-02-11T05:40:20;101998.16;;;2.93;100.00
68525;BME280;55524;51.380;13.372;2023-02-11T05:42:46;101996.41;;;2.90;100.00
68525;BME280;55524;51.380;13.372;2023-02-11T05:45:12;101996.47;;;2.93;100.00
68525;BME280;55524;51.380;13.372;2023-02-11T05:47:38;101995.56;;;2.93;100.00
68525;BME280;55524;51.380;13.372;2023-02-11T05:50:05;101999.91;;;2.92;100.00
68525;BME280;55524;51.380;13.372;2023-02-11T05:52:31;101996.47;;;2.93;100.00
68525;BME280;55524;51.380;13.372;2023-02-11T05:54:58;101994.59;;;2.88;100.00
68525;BME280;55524;51.380;13.372;2023-02-11T05:57:24;101996.34;;;2.89;100.00
68525;BME280;55524;51.380;13.372;2023-02-11T05:59:50;101999.09;;;2.95;100.00
68525;BME280;55524;51.380;13.372;2023-02-11T06:02:16;101989.38;;;2.86;100.00
68525;BME280;55524;51.380;13.372;2023-02-11T06:04:43;101991.19;;;2.92;100.00
68525;BME280;55524;51.380;13.372;2023-02-11T06:07:09;101986.91;;;2.95;100.00
68525;BME280;55524;51.380;13.372;2023-02-11T06:09:36;101984.38;;;2.99;100.00
68525;BME280;55524;51.380;13.372;2023-02-11T06:12:02;101988.72;;;2.98;100.00
68525;BME280;55524;51.380;13.372;2023-02-11T06:14:31;101980.88;;;2.98;99.73
68525;BME280;55524;51.380;13.372;2023-02-11T06:16:57;101985.31;;;3.04;98.94
68525;BME280;55524;51.380;13.372;2023-02-11T06:19:23;101982.66;;;3.01;98.80
68525;BME280;55524;51.380;13.372;2023-02-11T06:21:49;101980.94;;;3.01;98.07
68525;BME280;55524;51.380;13.372;2023-02-11T06:24:17;101965.44;;;3.12;96.23
68525;BME280;55524;51.380;13.372;2023-02-11T06:26:43;101966.28;;;3.09;96.27
68525;BME280;55524;51.380;13.372;2023-02-11T06:29:09;101969.75;;;3.08;96.39
68525;BME280;55524;51.380;13.372;2023-02-11T06:31:37;101975.16;;;3.17;95.93
68525;BME280;55524;51.380;13.372;2023-02-11T06:34:03;101967.31;;;3.17;94.85
68525;BME280;55524;51.380;13.372;2023-02-11T06:36:30;101967.41;;;3.24;94.44
68525;BME280;55524;51.380;13.372;2023-02-11T06:38:56;101959.69;;;3.30;93.76
68525;BME280;55524;51.380;13.372;2023-02-11T06:41:23;101955.31;;;3.29;93.24
68525;BME280;55524;51.380;13.372;2023-02-11T06:43:49;101949.25;;;3.31;92.93
68525;BME280;55524;51.380;13.372;2023-02-11T06:46:17;101960.53;;;3.29;93.25
68525;BME280;55524;51.380;13.372;2023-02-11T06:48:43;101963.19;;;3.32;93.06
68525;BME280;55524;51.380;13.372;2023-02-11T06:51:11;101957.19;;;3.37;92.79
68525;BME280;55524;51.380;13.372;2023-02-11T06:53:48;101958.94;;;3.38;93.25
68525;BME280;55524;51.380;13.372;2023-02-11T06:56:20;101970.22;;;3.36;94.25
68525;BME280;55524;51.380;13.372;2023-02-11T06:58:47;101969.22;;;3.28;94.79
68525;BME280;55524;51.380;13.372;2023-02-11T07:01:15;101972.81;;;3.34;94.06
68525;BME280;55524;51.380;13.372;2023-02-11T07:03:43;101965.91;;;3.38;94.56
68525;BME280;55524;51.380;13.372;2023-02-11T07:06:14;101961.56;;;3.38;94.60
68525;BME280;55524;51.380;13.372;2023-02-11T07:08:41;101977.09;;;3.31;95.58
68525;BME280;55524;51.380;13.372;2023-02-11T07:11:12;101976.31;;;3.36;94.75
68525;BME280;55524;51.380;13.372;2023-02-11T07:13:38;101979.84;;;3.38;95.42
68525;BME280;55524;51.380;13.372;2023-02-11T07:16:10;101986.94;;;3.45;95.39
68525;BME280;55524;51.380;13.372;2023-02-11T07:18:37;101972.97;;;3.43;95.81
68525;BME280;55524;51.380;13.372;2023-02-11T07:21:05;101981.66;;;3.42;95.71
68525;BME280;55524;51.380;13.372;2023-02-11T07:23:32;101979.91;;;3.41;96.71
68525;BME280;55524;51.380;13.372;2023-02-11T07:26:02;101980.78;;;3.42;95.80
68525;BME280;55524;51.380;13.372;2023-02-11T07:28:29;101984.41;;;3.49;95.76
68525;BME280;55524;51.380;13.372;2023-02-11T07:30:55;101994.84;;;3.49;95.40
68525;BME280;55524;51.380;13.372;2023-02-11T07:33:22;101981.84;;;3.53;94.92
68525;BME280;55524;51.380;13.372;2023-02-11T07:35:48;101980.19;;;3.57;94.62
68525;BME280;55524;51.380;13.372;2023-02-11T07:38:15;101982.81;;;3.60;94.74
68525;BME280;55524;51.380;13.372;2023-02-11T07:40:41;101972.34;;;3.58;95.00
68525;BME280;55524;51.380;13.372;2023-02-11T07:43:07;101967.94;;;3.56;95.04
68525;BME280;55524;51.380;13.372;2023-02-11T07:45:37;101972.34;;;3.58;94.77
68525;BME280;55524;51.380;13.372;2023-02-11T07:48:03;101973.22;;;3.57;94.25
68525;BME280;55524;51.380;13.372;2023-02-11T07:50:29;101969.72;;;3.58;94.05
68525;BME280;55524;51.380;13.372;2023-02-11T07:52:55;101973.25;;;3.60;93.54
68525;BME280;55524;51.380;13.372;2023-02-11T07:55:22;101970.72;;;3.66;93.64
68525;BME280;55524;51.380;13.372;2023-02-11T07:57:48;101969.84;;;3.64;93.91
68525;BME280;55524;51.380;13.372;2023-02-11T08:00:16;101971.66;;;3.72;93.00
68525;BME280;55524;51.380;13.372;2023-02-11T08:02:42;101981.31;;;3.76;92.95
68525;BME280;55524;51.380;13.372;2023-02-11T08:05:08;101967.44;;;3.78;93.63
68525;BME280;55524;51.380;13.372;2023-02-11T08:07:35;101968.34;;;3.80;93.42
68525;BME280;55524;51.380;13.372;2023-02-11T08:10:01;101968.31;;;3.79;93.19
68525;BME280;55524;51.380;13.372;2023-02-11T08:12:27;101960.50;;;3.82;93.81
68525;BME280;55524;51.380;13.372;2023-02-11T08:14:54;101962.19;;;3.77;94.48
68525;BME280;55524;51.380;13.372;2023-02-11T08:17:21;101963.94;;;3.76;93.79
68525;BME280;55524;51.380;13.372;2023-02-11T08:19:47;101963.94;;;3.78;94.66
68525;BME280;55524;51.380;13.372;2023-02-11T08:22:13;101964.91;;;3.84;94.03
68525;BME280;55524;51.380;13.372;2023-02-11T08:24:40;101973.66;;;3.88;94.53
68525;BME280;55524;51.380;13.372;2023-02-11T08:27:06;101972.78;;;3.86;94.12
68525;BME280;55524;51.380;13.372;2023-02-11T08:29:32;101967.66;;;3.95;94.12
68525;BME280;55524;51.380;13.372;2023-02-11T08:31:58;101969.41;;;3.94;93.90
68525;BME280;55524;51.380;13.372;2023-02-11T08:34:25;101961.63;;;3.98;93.54
68525;BME280;55524;51.380;13.372;2023-02-11T08:36:51;101965.00;;;3.90;93.89
68525;BME280;55524;51.380;13.372;2023-02-11T08:39:20;101972.06;;;3.98;92.99
68525;BME280;55524;51.380;13.372;2023-02-11T08:41:49;101964.22;;;3.96;93.27
68525;BME280;55524;51.380;13.372;2023-02-11T08:44:17;101969.47;;;3.98;93.86
68525;BME280;55524;51.380;13.372;2023-02-11T08:46:43;101969.44;;;3.96;93.67
68525;BME280;55524;51.380;13.372;2023-02-11T08:49:09;101962.44;;;3.95;93.41
68525;BME280;55524;51.380;13.372;2023-02-11T08:51:36;101959.94;;;4.01;93.78
68525;BME280;55524;51.380;13.372;2023-02-11T08:54:02;101955.53;;;3.99;93.71
68525;BME280;55524;51.380;13.372;2023-02-11T08:56:29;101957.38;;;4.07;92.00
68525;BME280;55524;51.380;13.372;2023-02-11T08:58:57;101961.78;;;4.11;92.30
68525;BME280;55524;51.380;13.372;2023-02-11T09:01:26;101966.16;;;4.11;92.17
68525;BME280;55524;51.380;13.372;2023-02-11T09:03:53;101973.16;;;4.12;91.74
68525;BME280;55524;51.380;13.372;2023-02-11T09:06:19;101994.97;;;4.12;92.76
68525;BME280;55524;51.380;13.372;2023-02-11T09:08:49;101990.63;;;4.14;91.78
68525;BME280;55524;51.380;13.372;2023-02-11T09:11:17;101990.56;;;4.10;92.75
68525;BME280;55524;51.380;13.372;2023-02-11T09:13:44;101984.50;;;4.12;92.29
68525;BME280;55524;51.380;13.372;2023-02-11T09:16:19;101990.56;;;4.08;93.46
68525;BME280;55524;51.380;13.372;2023-02-11T09:18:47;101992.34;;;4.12;92.70
68525;BME280;55524;51.380;13.372;2023-02-11T09:21:15;102002.88;;;4.18;93.07
68525;BME280;55524;51.380;13.372;2023-02-11T09:23:42;101993.34;;;4.24;93.26
68525;BME280;55524;51.380;13.372;2023-02-11T09:26:15;101992.47;;;4.22;93.81
68525;BME280;55524;51.380;13.372;2023-02-11T09:28:42;101989.97;;;4.29;93.12
68525;BME280;55524;51.380;13.372;2023-02-11T09:31:11;101992.59;;;4.31;93.22
68525;BME280;55524;51.380;13.372;2023-02-11T09:33:40;101989.19;;;4.38;93.05
68525;BME280;55524;51.380;13.372;2023-02-11T09:36:35;101975.38;;;4.50;91.76
68525;BME280;55524;51.380;13.372;2023-02-11T09:39:01;101975.47;;;4.57;92.06
68525;BME280;55524;51.380;13.372;2023-02-11T09:44:23;101961.56;;;4.60;91.79
68525;BME280;55524;51.380;13.372;2023-02-11T09:46:59;101965.03;;;4.59;91.92
68525;BME280;55524;51.380;13.372;2023-02-11T09:55:00;101958.34;;;4.87;90.76
68525;BME280;55524;51.380;13.372;2023-02-11T09:57:38;101960.22;;;4.99;91.33
68525;BME280;55524;51.380;13.372;2023-02-11T10:00:27;101960.38;;;5.11;90.87
68525;BME280;55524;51.380;13.372;2023-02-11T10:11:10;101949.69;;;4.94;90.14
68525;BME280;55524;51.380;13.372;2023-02-11T10:14:06;101948.03;;;4.99;90.14
68525;BME280;55524;51.380;13.372;2023-02-11T10:24:28;101961.44;;;5.31;88.93
68525;BME280;55524;51.380;13.372;2023-02-11T10:26:55;101970.13;;;5.27;89.93
68525;BME280;55524;51.380;13.372;2023-02-11T10:31:57;101979.59;;;5.14;90.19
68525;BME280;55524;51.380;13.372;2023-02-11T10:34:24;101963.03;;;5.15;90.00
68525;BME280;55524;51.380;13.372;2023-02-11T10:36:50;101973.47;;;5.14;90.14
68525;BME280;55524;51.380;13.372;2023-02-11T10:39:20;101973.50;;;5.15;91.34
68525;BME280;55524;51.380;13.372;2023-02-11T10:41:55;101963.91;;;5.16;90.54
68525;BME280;55524;51.380;13.372;2023-02-11T10:45:04;101961.25;;;5.11;91.55
68525;BME280;55524;51.380;13.372;2023-02-11T10:47:34;101963.00;;;5.11;90.90
68525;BME280;55524;51.380;13.372;2023-02-11T10:50:27;101967.19;;;4.97;92.19
68525;BME280;55524;51.380;13.372;2023-02-11T10:53:15;101965.41;;;4.94;92.30
68525;BME280;55524;51.380;13.372;2023-02-11T10:55:50;101968.13;;;5.00;92.93
68525;BME280;55524;51.380;13.372;2023-02-11T10:58:27;101964.63;;;5.01;92.53
68525;BME280;55524;51.380;13.372;2023-02-11T11:00:55;101956.75;;;5.01;93.19
68525;BME280;55524;51.380;13.372;2023-02-11T11:03:45;101964.69;;;5.07;94.11
68525;BME280;55524;51.380;13.372;2023-02-11T11:06:12;101954.25;;;5.12;94.22
68525;BME280;55524;51.380;13.372;2023-02-11T11:11:17;101944.69;;;5.17;94.99
68525;BME280;55524;51.380;13.372;2023-02-11T11:13:58;101948.25;;;5.25;94.66
68525;BME280;55524;51.380;13.372;2023-02-11T11:16:26;101950.94;;;5.33;95.35
68525;BME280;55524;51.380;13.372;2023-02-11T11:19:14;101949.22;;;5.38;95.07
68525;BME280;55524;51.380;13.372;2023-02-11T11:21:45;101949.28;;;5.44;94.60
68525;BME280;55524;51.380;13.372;2023-02-11T11:24:28;101948.44;;;5.48;94.69
68525;BME280;55524;51.380;13.372;2023-02-11T11:27:00;101948.44;;;5.48;95.02
68525;BME280;55524;51.380;13.372;2023-02-11T11:29:41;101946.72;;;5.47;94.81
68525;BME280;55524;51.380;13.372;2023-02-11T11:32:12;101952.81;;;5.48;95.05
68525;BME280;55524;51.380;13.372;2023-02-11T11:34:49;101951.03;;;5.43;94.93
68525;BME280;55524;51.380;13.372;2023-02-11T11:42:40;101946.72;;;5.47;95.46
68525;BME280;55524;51.380;13.372;2023-02-11T11:50:57;101961.56;;;5.47;96.91
68525;BME280;55524;51.380;13.372;2023-02-11T11:53:35;101986.00;;;5.46;96.70
68525;BME280;55524;51.380;13.372;2023-02-11T11:56:14;101972.97;;;5.52;96.24
68525;BME280;55524;51.380;13.372;2023-02-11T11:58:41;101967.66;;;5.46;97.21
68525;BME280;55524;51.380;13.372;2023-02-11T12:04:20;101990.41;;;5.47;97.01
68525;BME280;55524;51.380;13.372;2023-02-11T12:28:25;101973.88;;;5.57;98.05
68525;BME280;55524;51.380;13.372;2023-02-11T12:31:15;101970.38;;;5.56;98.78
68525;BME280;55524;51.380;13.372;2023-02-11T12:34:41;101969.53;;;5.60;98.58
68525;BME280;55524;51.380;13.372;2023-02-11T12:51:53;101949.50;;;5.72;97.48
68525;BME280;55524;51.380;13.372;2023-02-11T13:01:57;101952.09;;;5.67;98.27
68525;BME280;55524;51.380;13.372;2023-02-11T13:04:34;101950.28;;;5.58;98.71
68525;BME280;55524;51.380;13.372;2023-02-11T13:07:26;101945.94;;;5.60;99.35
68525;BME280;55524;51.380;13.372;2023-02-11T13:09:56;101946.78;;;5.61;99.61
68525;BME280;55524;51.380;13.372;2023-02-11T13:12:25;101942.44;;;5.60;98.81
68525;BME280;55524;51.380;13.372;2023-02-11T13:15:14;101945.94;;;5.59;99.17
68525;BME280;55524;51.380;13.372;2023-02-11T13:18:02;101932.81;;;5.60;99.40
68525;BME280;55524;51.380;13.372;2023-02-11T13:20:57;101944.25;;;5.67;99.50
68525;BME280;55524;51.380;13.372;2023-02-11T13:37:24;101952.09;;;5.68;99.71
68525;BME280;55524;51.380;13.372;2023-02-11T13:40:22;101960.88;;;5.71;99.49
68525;BME280;55524;51.380;13.372;2023-02-11T13:43:00;101954.75;;;5.73;99.90
68525;BME280;55524;51.380;13.372;2023-02-11T13:45:29;101952.19;;;5.81;99.36
68525;BME280;55524;51.380;13.372;2023-02-11T13:48:01;101944.28;;;5.76;99.79
68525;BME280;55524;51.380;13.372;2023-02-11T13:50:35;101934.63;;;5.74;99.54
68525;BME280;55524;51.380;13.372;2023-02-11T13:53:04;101942.50;;;5.74;99.48
68525;BME280;55524;51.380;13.372;2023-02-11T13:55:32;101937.25;;;5.69;100.00
68525;BME280;55524;51.380;13.372;2023-02-11T14:14:19;101952.09;;;5.68;100.00
68525;BME280;55524;51.380;13.372;2023-02-11T14:19:38;101954.78;;;5.75;99.90
68525;BME280;55524;51.380;13.372;2023-02-11T14:27:53;101939.88;;;5.71;100.00
68525;BME280;55524;51.380;13.372;2023-02-11T14:30:24;101940.78;;;5.76;100.00
68525;BME280;55524;51.380;13.372;2023-02-11T14:41:39;101948.69;;;5.82;100.00
68525;BME280;55524;51.380;13.372;2023-02-11T14:44:19;101958.28;;;5.77;100.00
68525;BME280;55524;51.380;13.372;2023-02-11T14:46:48;101950.44;;;5.78;100.00
68525;BME280;55524;51.380;13.372;2023-02-11T14:49:34;101947.81;;;5.80;100.00
68525;BME280;55524;51.380;13.372;2023-02-11T14:54:48;101959.19;;;5.79;100.00
68525;BME280;55524;51.380;13.372;2023-02-11T14:57:18;101966.19;;;5.80;100.00
68525;BME280;55524;51.380;13.372;2023-02-11T15:00:05;101964.44;;;5.79;100.00
68525;BME280;55524;51.380;13.372;2023-02-11T15:02:38;101967.06;;;5.79;100.00
68525;BME280;55524;51.380;13.372;2023-02-11T15:05:26;101961.78;;;5.82;100.00
68525;BME280;55524;51.380;13.372;2023-02-11T15:07:58;101966.13;;;5.74;100.00
68525;BME280;55524;51.380;13.372;2023-02-11T15:10:40;101953.00;;;5.74;100.00
68525;BME280;55524;51.380;13.372;2023-02-11T15:13:07;101965.22;;;5.68;100.00
68525;BME280;55524;51.380;13.372;2023-02-11T15:15:34;101966.97;;;5.70;100.00
68525;BME280;55524;51.380;13.372;2023-02-11T15:18:03;101958.25;;;5.74;100.00
68525;BME280;55524;51.380;13.372;2023-02-11T15:20:31;101965.28;;;5.75;100.00
68525;BME280;55524;51.380;13.372;2023-02-11T15:23:01;101973.16;;;5.75;100.00
68525;BME280;55524;51.380;13.372;2023-02-11T15:25:28;101975.69;;;5.64;100.00
68525;BME280;55524;51.380;13.372;2023-02-11T15:27:57;101961.66;;;5.62;100.00
68525;BME280;55524;51.380;13.372;2023-02-11T15:30:25;101966.88;;;5.56;100.00
68525;BME280;55524;51.380;13.372;2023-02-11T15:33:00;101957.25;;;5.55;100.00
68525;BME280;55524;51.380;13.372;2023-02-11T15:35:40;101960.75;;;5.55;100.00
68525;BME280;55524;51.380;13.372;2023-02-11T15:38:11;101960.78;;;5.58;100.00
68525;BME280;55524;51.380;13.372;2023-02-11T15:40:38;101966.94;;;5.65;100.00
68525;BME280;55524;51.380;13.372;2023-02-11T15:43:09;101966.03;;;5.58;100.00
68525;BME280;55524;51.380;13.372;2023-02-11T15:45:37;101965.13;;;5.58;100.00
68525;BME280;55524;51.380;13.372;2023-02-11T15:48:16;101970.38;;;5.56;100.00
68525;BME280;55524;51.380;13.372;2023-02-11T15:50:53;101966.88;;;5.56;100.00
68525;BME280;55524;51.380;13.372;2023-02-11T15:53:35;101973.00;;;5.56;100.00
68525;BME280;55524;51.380;13.372;2023-02-11T15:56:23;101977.31;;;5.53;100.00
68525;BME280;55524;51.380;13.372;2023-02-11T15:58:52;101988.69;;;5.52;100.00
68525;BME280;55524;51.380;13.372;2023-02-11T16:01:32;101980.84;;;5.55;100.00